KINS/INS METAR and TAF weather

Enter ICAO airport designator
Station Type Date Time Source
KINS METAR 2019/02/20 06:58 UTC NOAA

KINS 200658Z AUTO 00000KT 10SM FEW160 00/M07 A2994 RMK AO2 SLP143 T10031073 $


Station Type Date Time Source
KINS Decoded METAR 2019/02/20 06:58 UTC NOAA

Indian Springs, Indian Springs Auxiliary AFLD Nellis AFB, NV, United States (KINS) 36-35N 115-40W
Feb 20, 2019 - 01:58 AM EST / 2019.02.20 0658 UTC
Wind: Calm:0
Visibility: 10 mile(s):0
Sky conditions: mostly clear
Temperature: 31.5 F (-0.3 C)
Dew Point: 18.9 F (-7.3 C)
Relative Humidity: 59%
Pressure (altimeter): 29.94 in. Hg (1013 hPa)
ob: KINS 200658Z AUTO 00000KT 10SM FEW160 00/M07 A2994 RMK AO2 SLP143 T10031073
cycle: 7

Station Type Date Time Source
KINS TAF 2019/02/20 06:58 UTC NOAA

TAF KINS 200556Z 2006/2112 VRB06KT 9999 SKC QNH2978INS
BECMG 2015/2016 09012KT 8000 -RASN FEW070 SCT120 BKN150 621509 QNH2965INS
BECMG 2021/2022 11012KT 9999 NSW FEW120 QNH2944INS TX07/2023Z TNM05/2012Z


Example: see airport list